Salt Lake City, Utah
Traffic Map
Current Weather Conditions
Salt Lake City, Utah
Overcast Haze
Overcast
32°
Feels Like: 24°
Wind Chill: 24° Ceiling: 1100
Heat Index: 32° Visibility: 6mi
Dew Point: 27° Wind: 10mph
Humidity: 82% Direction: 280° (W)
Pressure: 30.21in Gusts: 0mph
Raw Report DataKSLC 110154Z 28009KT 6SM HZ OVC011 00/M03 A3021 RMK AO2 SLP246 T00001028
Traffic Incident Summary
Active as of:
Severity:
Category:
InformationThere was an issue retrieving the traffic information for this location. Please try a different location or try again shortly.
Advertisements